Latest Weather Observations for White Cliffs AWS

IDN60801

Issued at 2:03 pm EDT Saturday 21 October 2017 (issued every 30 minutes, with the page automatically refreshed every 10 minutes)

About weather observations | Map of weather stations | Latest weather observations for NSW | Other Formats
Station Details ID: 046129 Name: WHITE CLIFFS AWS Lat: -30.85 Lon: 143.07 Height: 158.0 m
Data from the previous 72 hours. | See also: Recent months at White Cliffs AWS
Date/Time
EDT
Temp
°C
App
Temp
°C
Dew
Point
°C
Rel
Hum
%
Delta-T
°C
Wind Press
QNH
hPa
Press
MSL
hPa
Rain since
9am
mm
Dir  Spd
km/h
Gust
km/h
Spd
kts
Gust
kts
21/02:00pm 21.9 15.5 3.1 29 9.0 SSE 26 39 14 21 1021.2 1020.7 0.0
21/01:30pm 22.2 16.1 4.7 32 8.7 S 26 39 14 21 1021.5 1021.0 0.0
21/01:00pm 20.9 15.4 4.0 33 8.2 S 22 33 12 18 1022.0 1021.5 0.0
21/12:30pm 20.1 13.7 3.3 33 8.0 S 26 35 14 19 1022.4 1021.9 0.0
21/12:00pm 18.5 12.0 2.8 35 7.3 S 26 44 14 24 1023.0 1022.5 0.0
21/11:30am 18.6 12.2 3.3 36 7.2 S 26 33 14 18 1023.3 1022.7 0.0
21/11:00am 18.1 11.0 3.6 38 6.8 S 30 37 16 20 1023.5 1022.9 0.0
21/10:30am 17.0 10.3 3.7 41 6.2 S 28 35 15 19 1023.6 1023.0 0.0
21/10:00am 15.9 8.7 3.0 42 5.9 S 30 37 16 20 1023.7 1023.1 0.0
21/09:30am 15.2 8.1 3.7 46 5.3 S 30 35 16 19 1023.5 1022.9 0.0
21/09:00am 14.5 7.0 3.3 47 5.1 SSE 32 41 17 22 1023.4 1022.8 0.0
21/08:30am 13.9 6.4 3.7 50 4.7 S 32 39 17 21 1023.2 1022.6 0.0
21/08:00am 13.4 6.7 3.5 51 4.5 S 28 37 15 20 1023.2 1022.6 0.0
21/07:30am 12.7 7.5 3.4 53 4.2 S 20 28 11 15 1022.8 1022.3 0.0
21/07:00am 12.4 7.4 3.6 55 3.9 S 19 24 10 13 1022.8 1022.3 0.0
21/06:30am 12.3 8.0 3.5 55 3.9 S 15 19 8 10 1022.6 1022.1 0.0
21/06:00am 13.1 7.8 3.2 51 4.4 SSE 20 26 11 14 1022.5 1022.0 0.0
21/05:30am 13.6 8.2 2.5 47 4.9 SSE 20 28 11 15 1022.5 1022.0 0.0
21/05:00am 13.9 8.5 2.5 46 5.1 SSE 20 28 11 15 1022.4 1021.9 0.0
21/04:30am 14.5 8.7 2.4 44 5.4 S 22 28 12 15 1022.6 1022.1 0.0
21/04:00am 14.8 8.9 2.0 42 5.7 S 22 28 12 15 1022.5 1022.0 0.0
21/03:30am 15.3 8.6 1.4 39 6.1 SSE 26 32 14 17 1022.4 1021.9 0.0
21/03:00am 15.5 9.9 0.9 37 6.3 SSE 20 30 11 16 1022.7 1022.2 0.0
21/02:30am 15.8 10.1 0.4 35 6.7 SSE 20 28 11 15 1022.9 1022.4 0.0
21/02:00am 16.2 10.0 -0.1 33 7.0 S 22 26 12 14 1023.3 1022.7 0.0
21/01:30am 16.5 10.4 0.2 33 7.1 SSE 22 30 12 16 1023.5 1022.9 0.0
21/01:00am 17.1 10.9 -0.1 31 7.4 SSE 22 28 12 15 1023.7 1023.1 0.0
21/12:30am 17.7 10.3 -0.5 29 7.9 SSE 28 35 15 19 1023.8 1023.2 0.0
21/12:00am 18.2 10.9 -0.1 29 8.0 SSE 28 35 15 19 1023.7 1023.1 0.0
 
Date/Time
EDT
Temp
°C
App
Temp
°C
Dew
Point
°C
Rel
Hum
%
Delta-T
°C
Wind Press
QNH
hPa
Press
MSL
hPa
Rain since
9am
mm
Dir  Spd
km/h
Gust
km/h
Spd
kts
Gust
kts
20/11:30pm 18.6 11.7 0.2 29 8.1 SSE 26 32 14 17 1023.7 1023.1 0.0
20/11:00pm 19.0 13.0 1.1 30 8.0 S 22 28 12 15 1023.6 1023.0 0.0
20/10:30pm 19.4 13.8 1.4 30 8.2 SSE 20 26 11 14 1023.5 1022.9 0.0
20/10:00pm 19.9 14.5 2.3 31 8.2 SSE 20 28 11 15 1023.2 1022.6 0.0
20/09:30pm 20.4 15.3 3.2 32 8.2 SSE 19 26 10 14 1022.8 1022.3 0.0
20/09:00pm 20.7 16.0 3.4 32 8.3 S 17 20 9 11 1022.5 1022.0 0.0
20/08:30pm 21.5 16.1 2.7 29 8.9 S 20 24 11 13 1022.2 1021.7 0.0
20/08:00pm 22.1 16.2 1.7 26 9.5 S 22 30 12 16 1021.8 1021.3 0.0
20/07:30pm 23.0 17.1 1.9 25 10.0 S 22 30 12 16 1021.4 1020.9 0.0
20/07:00pm 23.7 16.6 1.4 23 10.5 S 28 35 15 19 1021.1 1020.6 0.0
20/06:30pm 24.3 17.1 0.6 21 11.1 S 28 37 15 20 1021.0 1020.5 0.0
20/06:00pm 24.6 18.0 2.1 23 10.8 S 26 35 14 19 1020.9 1020.4 0.0
20/05:30pm 25.0 18.5 2.4 23 11.0 S 26 35 14 19 1020.8 1020.3 0.0
20/05:00pm 24.6 18.1 2.7 24 10.6 S 26 35 14 19 1021.0 1020.5 0.0
20/04:30pm 24.3 17.9 3.0 25 10.4 S 26 32 14 17 1021.2 1020.7 0.0
20/04:00pm 24.2 17.9 4.0 27 10.0 S 26 35 14 19 1021.4 1020.9 0.0
20/03:30pm 24.2 18.2 5.1 29 9.7 S 26 35 14 19 1021.8 1021.3 0.0
20/03:00pm 23.6 17.5 5.0 30 9.3 S 26 41 14 22 1022.3 1021.8 0.0
20/02:30pm 23.2 17.5 6.5 34 8.6 SSE 26 35 14 19 1022.6 1022.1 0.0
20/02:00pm 22.8 17.5 7.0 36 8.2 S 24 33 13 18 1023.2 1022.6 0.0
20/01:30pm 22.0 16.6 8.2 41 7.3 S 26 35 14 19 1023.5 1022.9 0.0
20/01:00pm 21.4 15.2 8.0 42 7.0 S 30 39 16 21 1023.8 1023.2 0.0
20/12:30pm 20.5 14.3 9.4 49 6.0 SSE 32 39 17 21 1024.2 1023.6 0.0
20/12:00pm 19.3 13.1 9.5 53 5.2 S 32 41 17 22 1024.6 1024.0 0.0
20/11:30am 18.4 12.4 10.0 58 4.5 SSE 32 43 17 23 1024.8 1024.2 0.0
20/11:00am 17.8 11.2 8.6 55 4.8 SSE 33 43 18 23 1024.9 1024.3 0.0
20/10:30am 17.2 10.8 9.4 60 4.1 S 33 41 18 22 1024.8 1024.2 0.0
20/10:00am 16.1 8.3 8.1 59 4.1 S 39 48 21 26 1024.7 1024.1 0.0
20/09:30am 15.4 7.1 7.9 61 3.8 S 41 50 22 27 1024.4 1023.8 0.0
20/09:00am 14.7 7.3 8.2 65 3.3 S 37 44 20 24 1024.1 1023.5 48.8
20/08:30am 14.9 7.0 7.9 63 3.5 S 39 54 21 29 1023.7 1023.1 48.8
20/08:00am 15.2 8.2 8.4 64 3.4 S 35 46 19 25 1023.4 1022.8 48.8
20/07:30am 15.4 8.6 9.1 66 3.3 S 35 48 19 26 1022.8 1022.3 48.8
20/07:00am 15.8 9.0 9.2 65 3.4 S 35 44 19 24 1022.5 1022.0 48.8
20/06:30am 16.2 9.5 9.6 65 3.5 S 35 46 19 25 1021.8 1021.3 48.8
20/06:00am 16.7 10.6 10.3 66 3.4 SSW 33 44 18 24 1021.2 1020.7 48.8
20/05:30am 17.2 11.5 11.0 67 3.4 S 32 41 17 22 1020.8 1020.3 48.8
20/05:00am 17.6 12.5 11.9 69 3.1 S 30 37 16 20 1020.7 1020.2 48.8
20/04:30am 18.6 13.6 12.1 66 3.6 S 30 41 16 22 1020.5 1020.0 48.8
20/04:00am 19.3 13.5 12.8 66 3.7 S 35 44 19 24 1020.2 1019.6 48.8
20/03:30am 20.1 15.7 14.0 68 3.5 SSW 30 37 16 20 1020.0 1019.4 48.8
20/03:00am 20.9 17.2 15.0 69 3.5 SSW 28 39 15 21 1020.1 1019.5 48.8
20/02:30am 22.4 22.9 20.1 87 1.5 S 17 24 9 13 1020.1 1019.5 48.4
20/02:00am 22.1 24.6 21.1 94 0.7 SW 9 11 5 6 1020.5 1020.0 48.4
20/01:30am 22.0 25.4 21.0 94 0.7 WNW 4 7 2 4 1020.7 1020.2 48.4
20/01:00am 22.0 25.0 21.3 96 0.5 W 7 9 4 5 1020.8 1020.3 48.4
20/12:30am 22.0 24.2 21.2 95 0.5 SW 11 13 6 7 1020.8 1020.3 48.4
20/12:00am 21.9 25.3 20.9 94 0.7 WNW 4 9 2 5 1020.6 1020.1 48.4
 
Date/Time
EDT
Temp
°C
App
Temp
°C
Dew
Point
°C
Rel
Hum
%
Delta-T
°C
Wind Press
QNH
hPa
Press
MSL
hPa
Rain since
9am
mm
Dir  Spd
km/h
Gust
km/h
Spd
kts
Gust
kts
19/11:30pm 21.9 25.0 21.1 95 0.5 SW 6 9 3 5 1020.9 1020.4 48.4
19/11:00pm 21.8 25.0 21.3 97 0.3 SE 6 11 3 6 1020.2 1019.6 48.4
19/10:30pm 21.7 25.9 21.0 96 0.5 CALM 0 0 0 0 1020.0 1019.4 48.4
19/10:00pm 21.7 24.8 21.0 96 0.5 SSW 6 9 3 5 1020.2 1019.6 48.0
19/09:30pm 21.3 22.8 20.6 96 0.5 E 13 19 7 10 1019.8 1019.2 47.8
19/09:00pm 21.4 24.1 20.7 96 0.5 NE 7 15 4 8 1019.0 1018.4 46.4
19/08:30pm 21.3 24.1 20.8 97 0.3 ENE 7 15 4 8 1018.7 1018.1 45.6
19/08:00pm 21.5 22.8 20.8 96 0.5 ENE 15 19 8 10 1018.3 1017.7 45.2
19/07:30pm 21.3 23.4 20.1 93 0.8 NE 9 20 5 11 1018.2 1017.6 44.6
19/07:00pm 21.4 22.6 20.0 92 0.9 NNE 13 19 7 10 1017.6 1017.0 42.0
19/06:30pm 21.0 21.5 18.4 85 1.6 NNW 13 30 7 16 1016.2 1015.7 21.0
19/06:00pm 23.9 23.1 20.8 83 2.0 SSW 26 33 14 18 1016.0 1015.5 2.6
19/05:47pm 26.5 25.8 19.6 66 4.5 S 22 39 12 21 1015.6 1015.1 0.0
19/05:30pm 29.3 29.1 17.5 49 7.5 SE 15 24 8 13 1015.2 1014.7 0.0
19/05:00pm 31.5 30.6 15.9 39 9.8 N 15 24 8 13 1015.0 1014.5 0.0
19/04:30pm 32.6 31.0 16.0 36 10.5 N 19 28 10 15 1015.1 1014.6 0.0
19/04:00pm 32.0 30.2 15.5 37 10.3 N 19 32 10 17 1015.6 1015.1 0.0
19/03:30pm 31.9 30.2 16.2 38 9.9 N 20 32 11 17 1016.2 1015.7 0.0
19/03:00pm 31.9 31.1 16.2 38 9.9 NNE 15 26 8 14 1016.7 1016.1 0.0
19/02:30pm 31.5 30.0 16.3 40 9.6 N 19 28 10 15 1017.2 1016.6 0.0
19/02:00pm 30.9 30.4 16.9 43 8.9 N 15 26 8 14 1017.6 1017.0 0.0
19/01:30pm 30.9 29.8 17.2 43 8.7 N 19 33 10 18 1018.1 1017.5 0.0
19/01:00pm 29.4 28.1 16.9 47 7.9 N 19 28 10 15 1018.4 1017.8 0.0
19/12:30pm 29.7 28.2 16.8 45 8.1 NNW 20 30 11 16 1018.7 1018.1 0.0
19/12:00pm 29.3 27.8 16.8 47 7.9 N 20 30 11 16 1018.9 1018.3 0.0
19/11:30am 29.5 27.3 17.0 47 7.9 N 24 35 13 19 1019.0 1018.4 0.0
19/11:00am 28.9 27.0 16.8 48 7.6 N 22 30 12 16 1019.2 1018.6 0.0
19/10:30am 27.5 24.6 16.1 49 7.1 N 26 35 14 19 1019.4 1018.8 0.0
19/10:00am 27.3 24.4 16.0 50 7.0 NNE 26 39 14 21 1019.6 1019.0 0.0
19/09:30am 26.9 24.5 16.5 53 6.5 N 24 30 13 16 1019.5 1018.9 0.0
19/09:00am 26.0 23.2 16.3 55 6.0 NNE 26 32 14 17 1019.4 1018.8 0.0
19/08:30am 26.0 23.4 16.0 54 6.2 NNE 24 32 13 17 1019.3 1018.7 0.0
19/08:00am 25.3 23.9 15.6 55 5.9 NNE 17 22 9 12 1019.0 1018.4 0.0
19/07:30am 24.9 24.0 15.8 57 5.6 NNE 15 20 8 11 1018.4 1017.8 0.0
19/07:00am 24.3 23.6 15.5 58 5.3 NNE 13 17 7 9 1018.0 1017.4 0.0
19/06:30am 24.4 23.0 15.6 58 5.4 NNE 17 20 9 11 1017.6 1017.0 0.0
19/06:00am 24.6 23.6 15.5 57 5.5 NNE 15 19 8 10 1017.3 1016.7 0.0
19/05:30am 24.9 23.0 15.2 54 5.9 NNE 19 24 10 13 1017.1 1016.5 0.0
19/05:00am 25.2 23.4 15.5 55 5.9 NNE 19 24 10 13 1016.9 1016.3 0.0
19/04:30am 25.4 23.6 15.4 54 6.1 NNE 19 24 10 13 1016.7 1016.1 0.0
19/04:00am 25.7 23.7 15.4 53 6.3 NNE 20 26 11 14 1016.9 1016.3 0.0
19/03:30am 25.8 23.7 15.2 52 6.4 NNE 20 28 11 15 1017.1 1016.5 0.0
19/03:00am 26.0 22.7 15.1 51 6.6 NE 26 32 14 17 1017.1 1016.5 0.0
19/02:30am 26.2 22.6 15.3 51 6.6 NNE 28 37 15 20 1017.3 1016.7 0.0
19/02:00am 26.5 22.8 14.9 49 7.0 NNE 28 39 15 21 1017.5 1016.9 0.0
19/01:30am 26.8 23.1 14.9 48 7.2 NE 28 35 15 19 1017.6 1017.0 0.0
19/01:00am 27.2 23.7 14.6 46 7.6 NE 26 37 14 20 1017.6 1017.0 0.0
19/12:30am 27.3 24.6 14.7 46 7.6 NE 22 28 12 15 1017.8 1017.2 0.0
19/12:00am 27.5 25.6 14.2 44 8.0 NNE 17 20 9 11 1017.8 1017.2 0.0
 
Date/Time
EDT
Temp
°C
App
Temp
°C
Dew
Point
°C
Rel
Hum
%
Delta-T
°C
Wind Press
QNH
hPa
Press
MSL
hPa
Rain since
9am
mm
Dir  Spd
km/h
Gust
km/h
Spd
kts
Gust
kts
18/11:30pm 28.1 26.2 14.3 42 8.3 NNE 17 20 9 11 1017.9 1017.3 0.0
18/11:00pm 27.9 25.9 13.8 42 8.4 NE 17 20 9 11 1017.7 1017.1 0.0
18/10:30pm 28.0 25.9 13.5 41 8.7 NE 17 20 9 11 1017.4 1016.8 0.0
18/10:00pm 28.2 26.4 13.3 40 8.9 NE 15 19 8 10 1017.3 1016.7 0.0
18/09:30pm 28.6 26.4 13.3 39 9.1 ENE 17 19 9 10 1017.1 1016.5 0.0
18/09:00pm 28.8 26.5 13.1 38 9.3 NE 17 22 9 12 1016.8 1016.2 0.0
18/08:30pm 29.4 26.8 13.2 37 9.7 NE 19 26 10 14 1016.5 1015.9 0.0
18/08:00pm 29.8 27.2 13.1 36 10.0 NE 19 24 10 13 1016.0 1015.5 0.0
18/07:30pm 30.0 25.7 13.3 36 10.0 NE 28 35 15 19 1015.7 1015.2 0.0
18/07:00pm 30.3 25.6 13.1 34 10.3 NE 30 41 16 22 1015.3 1014.8 0.0
18/06:30pm 30.5 25.8 13.3 35 10.3 NE 30 43 16 23 1015.0 1014.5 0.0
18/06:00pm 30.8 25.9 13.6 35 10.4 NE 32 41 17 22 1014.9 1014.4 0.0
18/05:30pm 30.9 25.6 13.2 34 10.6 NE 33 44 18 24 1014.8 1014.2 0.0
18/05:20pm 30.8 26.5 13.1 34 10.6 NE 28 48 15 26 1014.7 1014.1 0.0
18/05:00pm 30.6 26.2 13.0 34 10.5 NE 28 41 15 22 1014.9 1014.4 0.0
18/04:30pm 30.3 26.0 13.1 34 10.3 NE 28 48 15 26 1015.1 1014.6 0.0
18/04:21pm 30.8 26.5 13.1 34 10.6 NE 28 48 15 26 1015.1 1014.6 0.0
18/04:00pm 30.2 25.4 13.0 34 10.3 NE 30 41 16 22 1015.4 1014.9 0.0
18/03:30pm 30.2 26.4 13.5 36 10.1 ENE 26 39 14 21 1015.7 1015.2 0.0
18/03:00pm 30.2 25.4 13.0 34 10.3 NE 30 43 16 23 1016.2 1015.7 0.0
18/02:30pm 30.4 26.3 12.8 34 10.5 NE 26 41 14 22 1016.7 1016.1 0.0

Other Formats:

Comma delimited format used in spreadsheet applications
http://www.bom.gov.au/fwo/IDN60801/IDN60801.95699.axf

JavaScript Object Notation format (JSON) in row-major order
http://www.bom.gov.au/fwo/IDN60801/IDN60801.95699.json